SKW4695 KSFO-KACV
Flight info
| Callsign | SKW4695 |
|---|---|
| Flight time | 0h 40m |
| Altitude | 32000 |
| Route | TRUKN2 GRTFL DALON YAGER ACV |
| Aircraft | E75L/M-SDE3GILORVW/S |
Departure
| Time | 2026-04-19 06:13 |
|---|---|
| Airport | San Francisco International Airport (KSFO) |
Arrival
| Time | 2026-04-19 06:53 |
|---|---|
| Airport | California Redwood Coast-Humboldt County Airport (KACV) |
| Time | Latitude | Longitude | Altitude | Speed | Heading |
|---|---|---|---|---|---|
| 2026-04-19 05:53 | 37.61885 | -122.38384 | 20 ft | 0 kts | 298° |
| 2026-04-19 06:04 | 37.61883 | -122.38380 | 20 ft | 3 kts | 298° |
| 2026-04-19 06:04 | 37.61871 | -122.38350 | 20 ft | 4 kts | 298° |
| 2026-04-19 06:04 | 37.61860 | -122.38320 | 20 ft | 4 kts | 290° |
| 2026-04-19 06:04 | 37.61849 | -122.38302 | 20 ft | 0 kts | 333° |
| 2026-04-19 06:05 | 37.61864 | -122.38297 | 20 ft | 4 kts | 37° |
| 2026-04-19 06:05 | 37.61885 | -122.38276 | 20 ft | 4 kts | 32° |
| 2026-04-19 06:05 | 37.61907 | -122.38261 | 20 ft | 3 kts | 28° |
| 2026-04-19 06:05 | 37.61911 | -122.38259 | 20 ft | 0 kts | 28° |
| 2026-04-19 06:07 | 37.61912 | -122.38257 | 20 ft | 1 kts | 28° |
| 2026-04-19 06:07 | 37.61929 | -122.38246 | 20 ft | 4 kts | 28° |
| 2026-04-19 06:07 | 37.61952 | -122.38223 | 20 ft | 5 kts | 58° |
| 2026-04-19 06:08 | 37.61952 | -122.38173 | 20 ft | 7 kts | 112° |
| 2026-04-19 06:08 | 37.61932 | -122.38126 | 20 ft | 6 kts | 118° |
| 2026-04-19 06:08 | 37.61912 | -122.38074 | 20 ft | 8 kts | 117° |
| 2026-04-19 06:08 | 37.61868 | -122.38007 | 20 ft | 12 kts | 142° |
| 2026-04-19 06:09 | 37.61786 | -122.37955 | 20 ft | 15 kts | 166° |
| 2026-04-19 06:09 | 37.61669 | -122.37963 | 20 ft | 19 kts | 202° |
| 2026-04-19 06:09 | 37.61553 | -122.38039 | 20 ft | 18 kts | 212° |
| 2026-04-19 06:09 | 37.61435 | -122.38117 | 20 ft | 20 kts | 207° |
| 2026-04-19 06:10 | 37.61302 | -122.38205 | 20 ft | 22 kts | 208° |
| 2026-04-19 06:10 | 37.61160 | -122.38297 | 20 ft | 23 kts | 206° |
| 2026-04-19 06:10 | 37.61016 | -122.38398 | 20 ft | 24 kts | 211° |
| 2026-04-19 06:10 | 37.60901 | -122.38479 | 20 ft | 8 kts | 173° |
| 2026-04-19 06:11 | 37.60873 | -122.38452 | 20 ft | 6 kts | 121° |
| 2026-04-19 06:11 | 37.60844 | -122.38387 | 20 ft | 10 kts | 119° |
| 2026-04-19 06:11 | 37.60815 | -122.38297 | 20 ft | 12 kts | 82° |
| 2026-04-19 06:12 | 37.60848 | -122.38256 | 20 ft | 0 kts | 27° |
| 2026-04-19 06:12 | 37.60907 | -122.38217 | 20 ft | 37 kts | 28° |
| 2026-04-19 06:12 | 37.61013 | -122.38149 | 20 ft | 64 kts | 27° |
| 2026-04-19 06:13 | 37.62968 | -122.36873 | 606 ft | 168 kts | 27° |
| 2026-04-19 06:13 | 37.63905 | -122.36070 | 950 ft | 168 kts | 45° |
| 2026-04-19 06:13 | 37.64655 | -122.34844 | 1497 ft | 186 kts | 56° |
| 2026-04-19 06:14 | 37.65412 | -122.33419 | 2069 ft | 204 kts | 56° |
| 2026-04-19 06:14 | 37.66246 | -122.31863 | 2746 ft | 221 kts | 56° |
| 2026-04-19 06:14 | 37.67150 | -122.30200 | 3459 ft | 245 kts | 56° |
| 2026-04-19 06:14 | 37.68165 | -122.28324 | 4072 ft | 270 kts | 56° |
| 2026-04-19 06:15 | 37.69244 | -122.26330 | 5046 ft | 278 kts | 56° |
| 2026-04-19 06:15 | 37.70319 | -122.24273 | 6130 ft | 282 kts | 57° |
| 2026-04-19 06:15 | 37.71536 | -122.22330 | 7151 ft | 286 kts | 39° |
| 2026-04-19 06:15 | 37.73341 | -122.21338 | 8181 ft | 288 kts | 6° |
| 2026-04-19 06:16 | 37.75350 | -122.21299 | 9149 ft | 290 kts | 359° |
| 2026-04-19 06:16 | 37.77387 | -122.21334 | 10003 ft | 295 kts | 359° |
| 2026-04-19 06:16 | 37.79494 | -122.21351 | 10566 ft | 310 kts | 359° |
| 2026-04-19 06:16 | 37.81704 | -122.21384 | 11123 ft | 323 kts | 359° |
| 2026-04-19 06:17 | 37.83985 | -122.21422 | 11779 ft | 331 kts | 359° |
| 2026-04-19 06:17 | 37.86277 | -122.21460 | 12474 ft | 337 kts | 359° |
| 2026-04-19 06:17 | 37.88636 | -122.21496 | 13188 ft | 341 kts | 359° |
| 2026-04-19 06:17 | 37.91033 | -122.21536 | 13891 ft | 346 kts | 359° |
| 2026-04-19 06:18 | 37.93453 | -122.21577 | 14598 ft | 350 kts | 359° |
| 2026-04-19 06:18 | 37.95907 | -122.21626 | 15283 ft | 354 kts | 359° |
| 2026-04-19 06:18 | 37.98390 | -122.21681 | 15946 ft | 359 kts | 359° |
| 2026-04-19 06:18 | 38.00899 | -122.21744 | 16570 ft | 363 kts | 358° |
| 2026-04-19 06:19 | 38.03438 | -122.21816 | 17159 ft | 367 kts | 358° |
| 2026-04-19 06:19 | 38.06007 | -122.21896 | 17712 ft | 370 kts | 358° |
| 2026-04-19 06:19 | 38.08596 | -122.21983 | 18241 ft | 374 kts | 358° |
| 2026-04-19 06:19 | 38.11209 | -122.22076 | 18734 ft | 378 kts | 358° |
| 2026-04-19 06:20 | 38.13846 | -122.22177 | 19199 ft | 381 kts | 358° |
| 2026-04-19 06:20 | 38.16508 | -122.22283 | 19653 ft | 384 kts | 358° |
| 2026-04-19 06:20 | 38.19191 | -122.22394 | 20081 ft | 387 kts | 358° |
| 2026-04-19 06:20 | 38.21855 | -122.22510 | 20475 ft | 390 kts | 358° |
| 2026-04-19 06:21 | 38.24575 | -122.22632 | 20864 ft | 393 kts | 358° |
| 2026-04-19 06:21 | 38.27315 | -122.22758 | 21237 ft | 395 kts | 358° |
| 2026-04-19 06:21 | 38.30070 | -122.22890 | 21592 ft | 398 kts | 357° |
| 2026-04-19 06:21 | 38.32845 | -122.23025 | 21929 ft | 400 kts | 357° |
| 2026-04-19 06:22 | 38.35641 | -122.23166 | 22251 ft | 403 kts | 357° |
| 2026-04-19 06:22 | 38.38447 | -122.23304 | 22561 ft | 405 kts | 358° |
| 2026-04-19 06:22 | 38.41271 | -122.23440 | 22862 ft | 407 kts | 357° |
| 2026-04-19 06:22 | 38.44115 | -122.23578 | 23144 ft | 410 kts | 358° |
| 2026-04-19 06:23 | 38.46974 | -122.23716 | 23415 ft | 412 kts | 357° |
| 2026-04-19 06:23 | 38.49844 | -122.23855 | 23682 ft | 413 kts | 358° |
| 2026-04-19 06:23 | 38.52724 | -122.23995 | 23926 ft | 415 kts | 357° |
| 2026-04-19 06:23 | 38.55623 | -122.24135 | 24162 ft | 417 kts | 358° |
| 2026-04-19 06:24 | 38.58531 | -122.24277 | 24394 ft | 419 kts | 357° |
| 2026-04-19 06:24 | 38.61452 | -122.24418 | 24615 ft | 421 kts | 358° |
| 2026-04-19 06:24 | 38.64384 | -122.24562 | 24816 ft | 422 kts | 357° |
| 2026-04-19 06:24 | 38.67328 | -122.24705 | 25021 ft | 424 kts | 358° |
| 2026-04-19 06:25 | 38.70245 | -122.24847 | 25209 ft | 425 kts | 357° |
| 2026-04-19 06:25 | 38.73211 | -122.24991 | 25390 ft | 427 kts | 358° |
| 2026-04-19 06:25 | 38.76187 | -122.25137 | 25562 ft | 428 kts | 357° |
| 2026-04-19 06:25 | 38.79168 | -122.25281 | 25726 ft | 430 kts | 358° |
| 2026-04-19 06:26 | 38.82162 | -122.25429 | 25894 ft | 430 kts | 358° |
| 2026-04-19 06:26 | 38.85148 | -122.25574 | 26043 ft | 431 kts | 358° |
| 2026-04-19 06:26 | 38.88166 | -122.25722 | 26028 ft | 436 kts | 357° |
| 2026-04-19 06:26 | 38.91219 | -122.25872 | 26031 ft | 441 kts | 358° |
| 2026-04-19 06:27 | 38.94300 | -122.26023 | 26020 ft | 445 kts | 358° |
| 2026-04-19 06:27 | 38.97409 | -122.26176 | 26002 ft | 449 kts | 358° |
| 2026-04-19 06:27 | 39.00536 | -122.26328 | 26000 ft | 452 kts | 358° |
| 2026-04-19 06:27 | 39.03690 | -122.26502 | 25999 ft | 454 kts | 355° |
| 2026-04-19 06:28 | 39.06747 | -122.27440 | 26017 ft | 454 kts | 336° |
| 2026-04-19 06:28 | 39.09354 | -122.29629 | 26019 ft | 455 kts | 319° |
| 2026-04-19 06:28 | 39.11736 | -122.32324 | 26024 ft | 457 kts | 319° |
| 2026-04-19 06:28 | 39.14167 | -122.34986 | 26011 ft | 459 kts | 320° |
| 2026-04-19 06:29 | 39.16663 | -122.37571 | 26000 ft | 461 kts | 321° |
| 2026-04-19 06:29 | 39.19168 | -122.40154 | 25997 ft | 462 kts | 321° |
| 2026-04-19 06:29 | 39.21687 | -122.42741 | 26001 ft | 463 kts | 321° |
| 2026-04-19 06:29 | 39.24214 | -122.45330 | 26000 ft | 464 kts | 321° |
| 2026-04-19 06:30 | 39.26755 | -122.47930 | 25998 ft | 465 kts | 321° |
| 2026-04-19 06:30 | 39.29290 | -122.50522 | 26000 ft | 466 kts | 321° |
| 2026-04-19 06:30 | 39.31833 | -122.53124 | 25996 ft | 467 kts | 321° |
| 2026-04-19 06:30 | 39.34383 | -122.55735 | 25998 ft | 467 kts | 321° |
| 2026-04-19 06:31 | 39.36900 | -122.58311 | 26000 ft | 468 kts | 321° |
| 2026-04-19 06:31 | 39.39458 | -122.60929 | 25996 ft | 469 kts | 321° |
| 2026-04-19 06:31 | 39.42012 | -122.63545 | 26001 ft | 469 kts | 321° |
| 2026-04-19 06:31 | 39.44571 | -122.66169 | 25998 ft | 469 kts | 321° |
| 2026-04-19 06:32 | 39.47129 | -122.68795 | 25999 ft | 470 kts | 321° |
| 2026-04-19 06:32 | 39.49694 | -122.71430 | 25995 ft | 470 kts | 321° |
| 2026-04-19 06:32 | 39.52264 | -122.74073 | 26001 ft | 472 kts | 321° |
| 2026-04-19 06:32 | 39.54840 | -122.76723 | 26000 ft | 474 kts | 321° |
| 2026-04-19 06:33 | 39.57427 | -122.79388 | 25998 ft | 475 kts | 321° |
| 2026-04-19 06:33 | 39.60013 | -122.82055 | 26000 ft | 475 kts | 321° |
| 2026-04-19 06:33 | 39.62597 | -122.84722 | 25998 ft | 475 kts | 321° |
| 2026-04-19 06:33 | 39.65183 | -122.87394 | 26002 ft | 475 kts | 321° |
| 2026-04-19 06:34 | 39.67732 | -122.90030 | 26001 ft | 475 kts | 321° |
| 2026-04-19 06:34 | 39.70316 | -122.92706 | 26000 ft | 475 kts | 321° |
| 2026-04-19 06:34 | 39.72900 | -122.95384 | 25998 ft | 475 kts | 321° |
| 2026-04-19 06:34 | 39.75483 | -122.98063 | 25996 ft | 475 kts | 321° |
| 2026-04-19 06:35 | 39.78063 | -123.00743 | 26001 ft | 475 kts | 321° |
| 2026-04-19 06:35 | 39.80647 | -123.03429 | 26001 ft | 475 kts | 321° |
| 2026-04-19 06:35 | 39.83227 | -123.06113 | 25998 ft | 475 kts | 321° |
| 2026-04-19 06:35 | 39.85803 | -123.08795 | 25960 ft | 468 kts | 321° |
| 2026-04-19 06:36 | 39.88304 | -123.11406 | 25500 ft | 452 kts | 321° |
| 2026-04-19 06:36 | 39.90709 | -123.13925 | 24994 ft | 438 kts | 321° |
| 2026-04-19 06:36 | 39.93056 | -123.16390 | 24386 ft | 428 kts | 321° |
| 2026-04-19 06:36 | 39.95356 | -123.18807 | 23798 ft | 419 kts | 321° |
| 2026-04-19 06:37 | 39.97574 | -123.21136 | 23255 ft | 412 kts | 321° |
| 2026-04-19 06:37 | 39.99797 | -123.23470 | 22715 ft | 409 kts | 321° |
| 2026-04-19 06:37 | 40.02007 | -123.25792 | 22175 ft | 406 kts | 321° |
| 2026-04-19 06:37 | 40.04208 | -123.28106 | 21630 ft | 403 kts | 321° |
| 2026-04-19 06:38 | 40.06385 | -123.30394 | 21097 ft | 400 kts | 321° |
| 2026-04-19 06:38 | 40.08544 | -123.32663 | 20563 ft | 396 kts | 321° |
| 2026-04-19 06:38 | 40.10678 | -123.34908 | 20041 ft | 392 kts | 321° |
| 2026-04-19 06:38 | 40.12799 | -123.37139 | 19523 ft | 389 kts | 321° |
| 2026-04-19 06:39 | 40.14893 | -123.39344 | 19005 ft | 385 kts | 321° |
| 2026-04-19 06:39 | 40.16964 | -123.41528 | 18543 ft | 380 kts | 321° |
| 2026-04-19 06:39 | 40.18990 | -123.43667 | 18011 ft | 379 kts | 321° |
| 2026-04-19 06:39 | 40.21032 | -123.45820 | 17531 ft | 375 kts | 321° |
| 2026-04-19 06:40 | 40.23056 | -123.47950 | 17031 ft | 372 kts | 321° |
| 2026-04-19 06:40 | 40.25060 | -123.50062 | 16540 ft | 368 kts | 321° |
| 2026-04-19 06:40 | 40.27045 | -123.52156 | 16054 ft | 365 kts | 321° |
| 2026-04-19 06:40 | 40.29017 | -123.54244 | 15561 ft | 362 kts | 320° |
| 2026-04-19 06:41 | 40.30969 | -123.56312 | 15078 ft | 359 kts | 320° |
| 2026-04-19 06:41 | 40.32904 | -123.58361 | 14604 ft | 355 kts | 320° |
| 2026-04-19 06:41 | 40.34816 | -123.60386 | 14129 ft | 352 kts | 320° |
| 2026-04-19 06:41 | 40.36707 | -123.62386 | 13670 ft | 344 kts | 320° |
| 2026-04-19 06:42 | 40.38544 | -123.64328 | 13205 ft | 336 kts | 321° |
| 2026-04-19 06:42 | 40.40340 | -123.66229 | 12781 ft | 328 kts | 320° |
| 2026-04-19 06:42 | 40.42073 | -123.68067 | 12348 ft | 321 kts | 320° |
| 2026-04-19 06:42 | 40.43798 | -123.69897 | 11919 ft | 315 kts | 320° |
| 2026-04-19 06:43 | 40.45489 | -123.71691 | 11507 ft | 310 kts | 320° |
| 2026-04-19 06:43 | 40.47153 | -123.73455 | 11095 ft | 305 kts | 320° |
| 2026-04-19 06:43 | 40.48790 | -123.75190 | 10698 ft | 301 kts | 320° |
| 2026-04-19 06:43 | 40.50410 | -123.76911 | 10292 ft | 298 kts | 320° |
| 2026-04-19 06:44 | 40.52016 | -123.78616 | 9900 ft | 296 kts | 320° |
| 2026-04-19 06:44 | 40.53613 | -123.80315 | 9516 ft | 295 kts | 320° |
| 2026-04-19 06:44 | 40.55208 | -123.82011 | 9118 ft | 294 kts | 320° |
| 2026-04-19 06:44 | 40.56845 | -123.83604 | 8735 ft | 292 kts | 329° |
| 2026-04-19 06:45 | 40.58663 | -123.84776 | 8362 ft | 291 kts | 335° |
| 2026-04-19 06:45 | 40.60516 | -123.85850 | 7975 ft | 290 kts | 335° |
| 2026-04-19 06:45 | 40.62339 | -123.86973 | 7591 ft | 288 kts | 333° |
| 2026-04-19 06:45 | 40.64129 | -123.88157 | 7203 ft | 287 kts | 332° |
| 2026-04-19 06:46 | 40.65877 | -123.89395 | 6826 ft | 284 kts | 330° |
| 2026-04-19 06:46 | 40.67592 | -123.90688 | 6421 ft | 282 kts | 329° |
| 2026-04-19 06:46 | 40.69321 | -123.91887 | 6002 ft | 280 kts | 336° |
| 2026-04-19 06:46 | 40.71129 | -123.92756 | 5610 ft | 270 kts | 340° |
| 2026-04-19 06:47 | 40.72773 | -123.93728 | 5218 ft | 254 kts | 330° |
| 2026-04-19 06:47 | 40.74267 | -123.94871 | 4857 ft | 243 kts | 330° |
| 2026-04-19 06:47 | 40.75740 | -123.95848 | 4530 ft | 229 kts | 334° |
| 2026-04-19 06:47 | 40.77127 | -123.96741 | 4235 ft | 215 kts | 332° |
| 2026-04-19 06:48 | 40.78397 | -123.97624 | 3996 ft | 194 kts | 331° |
| 2026-04-19 06:48 | 40.79516 | -123.98385 | 3760 ft | 168 kts | 332° |
| 2026-04-19 06:48 | 40.80493 | -123.99040 | 3513 ft | 150 kts | 332° |
| 2026-04-19 06:48 | 40.81414 | -123.99667 | 3301 ft | 148 kts | 332° |
| 2026-04-19 06:49 | 40.82313 | -124.00279 | 3112 ft | 148 kts | 332° |
| 2026-04-19 06:49 | 40.83225 | -124.00897 | 2926 ft | 147 kts | 332° |
| 2026-04-19 06:49 | 40.84136 | -124.01515 | 2743 ft | 147 kts | 332° |
| 2026-04-19 06:49 | 40.85046 | -124.02134 | 2557 ft | 147 kts | 332° |
| 2026-04-19 06:50 | 40.85955 | -124.02751 | 2373 ft | 147 kts | 332° |
| 2026-04-19 06:50 | 40.86862 | -124.03367 | 2181 ft | 146 kts | 332° |
| 2026-04-19 06:50 | 40.87767 | -124.03982 | 2009 ft | 145 kts | 332° |
| 2026-04-19 06:50 | 40.88651 | -124.04582 | 2047 ft | 145 kts | 332° |
| 2026-04-19 06:51 | 40.89559 | -124.05200 | 1910 ft | 149 kts | 332° |
| 2026-04-19 06:51 | 40.90473 | -124.05823 | 1711 ft | 147 kts | 332° |
| 2026-04-19 06:51 | 40.91375 | -124.06438 | 1520 ft | 145 kts | 332° |
| 2026-04-19 06:51 | 40.92276 | -124.07049 | 1310 ft | 145 kts | 332° |
| 2026-04-19 06:52 | 40.93152 | -124.07647 | 1125 ft | 143 kts | 332° |
| 2026-04-19 06:52 | 40.94042 | -124.08253 | 937 ft | 144 kts | 332° |
| 2026-04-19 06:52 | 40.94926 | -124.08855 | 747 ft | 142 kts | 332° |
| 2026-04-19 06:52 | 40.95805 | -124.09456 | 557 ft | 143 kts | 332° |
| 2026-04-19 06:53 | 40.96685 | -124.10064 | 340 ft | 142 kts | 331° |
| 2026-04-19 06:53 | 40.97528 | -124.10641 | 218 ft | 125 kts | 331° |
| 2026-04-19 06:53 | 40.98181 | -124.11087 | 198 ft | 77 kts | 336° |
| 2026-04-19 06:53 | 40.98477 | -124.11274 | 191 ft | 22 kts | 316° |
| 2026-04-19 06:54 | 40.98496 | -124.11352 | 190 ft | 4 kts | 242° |
| 2026-04-19 06:54 | 40.98477 | -124.11361 | 190 ft | 6 kts | 182° |
| 2026-04-19 06:54 | 40.98450 | -124.11353 | 191 ft | 4 kts | 179° |
| 2026-04-19 06:54 | 40.98393 | -124.11343 | 192 ft | 13 kts | 159° |
| 2026-04-19 06:55 | 40.98286 | -124.11271 | 195 ft | 22 kts | 153° |
| 2026-04-19 06:55 | 40.98127 | -124.11165 | 199 ft | 30 kts | 150° |
| 2026-04-19 06:55 | 40.97929 | -124.11030 | 205 ft | 33 kts | 153° |
| 2026-04-19 06:55 | 40.97726 | -124.10892 | 207 ft | 33 kts | 149° |
| 2026-04-19 06:56 | 40.97521 | -124.10751 | 213 ft | 32 kts | 153° |
| 2026-04-19 06:56 | 40.97317 | -124.10618 | 218 ft | 33 kts | 155° |
| 2026-04-19 06:56 | 40.97169 | -124.10515 | 221 ft | 1 kts | 163° |
| 2026-04-19 06:56 | 40.97165 | -124.10514 | 221 ft | 0 kts | 176° |
| 2026-04-19 06:57 | 40.97164 | -124.10514 | 221 ft | 0 kts | 195° |
| 2026-04-19 06:57 | 40.97162 | -124.10518 | 221 ft | 2 kts | 227° |
| 2026-04-19 06:57 | 40.97136 | -124.10568 | 220 ft | 1 kts | 238° |
| 2026-04-19 06:57 | 40.97125 | -124.10603 | 220 ft | 7 kts | 244° |
| 2026-04-19 06:58 | 40.97124 | -124.10605 | 220 ft | 0 kts | 243° |